ZIW YBRM-YPPD
Flight info
| Callsign | ZIW |
|---|---|
| Flight time | 1h 42m |
| Altitude | 6500 |
| Route | YECB YLGB YAPA YWAL YPDO |
| Aircraft | DA42/L-SBDGRY/S |
Departure
| Time | 2026-04-25 03:36 |
|---|---|
| Airport | Broome International Airport (YBRM) |
Arrival
| Time | 2026-04-25 05:18 |
|---|---|
| Airport | Port Hedland International Airport (YPPD) |
| Time | Latitude | Longitude | Altitude | Speed | Heading |
|---|---|---|---|---|---|
| 2026-04-25 03:23 | -17.94637 | 122.22706 | 48 ft | 0 kts | 106° |
| 2026-04-25 03:31 | -17.94639 | 122.22710 | 48 ft | 1 kts | 123° |
| 2026-04-25 03:31 | -17.94661 | 122.22714 | 48 ft | 4 kts | 181° |
| 2026-04-25 03:32 | -17.94674 | 122.22708 | 48 ft | 1 kts | 162° |
| 2026-04-25 03:32 | -17.94679 | 122.22725 | 47 ft | 4 kts | 109° |
| 2026-04-25 03:32 | -17.94712 | 122.22726 | 47 ft | 7 kts | 194° |
| 2026-04-25 03:32 | -17.94764 | 122.22710 | 47 ft | 8 kts | 199° |
| 2026-04-25 03:33 | -17.94778 | 122.22660 | 48 ft | 11 kts | 287° |
| 2026-04-25 03:33 | -17.94751 | 122.22562 | 50 ft | 13 kts | 286° |
| 2026-04-25 03:33 | -17.94727 | 122.22470 | 52 ft | 12 kts | 285° |
| 2026-04-25 03:33 | -17.94704 | 122.22384 | 53 ft | 10 kts | 287° |
| 2026-04-25 03:34 | -17.94700 | 122.22352 | 53 ft | 0 kts | 232° |
| 2026-04-25 03:34 | -17.94700 | 122.22351 | 53 ft | 0 kts | 224° |
| 2026-04-25 03:34 | -17.94701 | 122.22351 | 53 ft | 0 kts | 222° |
| 2026-04-25 03:34 | -17.94714 | 122.22344 | 53 ft | 6 kts | 199° |
| 2026-04-25 03:35 | -17.94762 | 122.22330 | 53 ft | 7 kts | 184° |
| 2026-04-25 03:35 | -17.94779 | 122.22371 | 53 ft | 30 kts | 107° |
| 2026-04-25 03:35 | -17.94899 | 122.22823 | 47 ft | 87 kts | 105° |
| 2026-04-25 03:35 | -17.95064 | 122.23441 | 295 ft | 86 kts | 103° |
| 2026-04-25 03:36 | -17.95213 | 122.24065 | 584 ft | 93 kts | 91° |
| 2026-04-25 03:36 | -17.94986 | 122.24693 | 893 ft | 97 kts | 45° |
| 2026-04-25 03:36 | -17.94372 | 122.24885 | 1288 ft | 98 kts | 2° |
| 2026-04-25 03:36 | -17.93769 | 122.24513 | 1647 ft | 109 kts | 313° |
| 2026-04-25 03:37 | -17.93602 | 122.23737 | 2012 ft | 115 kts | 262° |
| 2026-04-25 03:37 | -17.94016 | 122.23045 | 2347 ft | 113 kts | 208° |
| 2026-04-25 03:37 | -17.94725 | 122.22804 | 2698 ft | 106 kts | 184° |
| 2026-04-25 03:37 | -17.95441 | 122.22611 | 3036 ft | 107 kts | 185° |
| 2026-04-25 03:38 | -17.96177 | 122.22455 | 3384 ft | 106 kts | 182° |
| 2026-04-25 03:38 | -17.96884 | 122.22263 | 3743 ft | 105 kts | 187° |
| 2026-04-25 03:38 | -17.97586 | 122.22093 | 4087 ft | 105 kts | 187° |
| 2026-04-25 03:38 | -17.98278 | 122.21893 | 4430 ft | 104 kts | 184° |
| 2026-04-25 03:39 | -17.98968 | 122.21713 | 4786 ft | 101 kts | 183° |
| 2026-04-25 03:39 | -17.99655 | 122.21527 | 5129 ft | 102 kts | 186° |
| 2026-04-25 03:39 | -18.00324 | 122.21341 | 5483 ft | 100 kts | 184° |
| 2026-04-25 03:39 | -18.00992 | 122.21152 | 5829 ft | 100 kts | 185° |
| 2026-04-25 03:40 | -18.01658 | 122.20967 | 6170 ft | 100 kts | 185° |
| 2026-04-25 03:40 | -18.02332 | 122.20776 | 6488 ft | 102 kts | 185° |
| 2026-04-25 03:40 | -18.03090 | 122.20587 | 6608 ft | 121 kts | 184° |
| 2026-04-25 03:40 | -18.03998 | 122.20412 | 6607 ft | 139 kts | 182° |
| 2026-04-25 03:41 | -18.04982 | 122.20237 | 6616 ft | 148 kts | 185° |
| 2026-04-25 03:41 | -18.06026 | 122.19964 | 6608 ft | 156 kts | 192° |
| 2026-04-25 03:41 | -18.07100 | 122.19576 | 6530 ft | 163 kts | 192° |
| 2026-04-25 03:41 | -18.08162 | 122.19193 | 6558 ft | 162 kts | 193° |
| 2026-04-25 03:42 | -18.09256 | 122.18825 | 6540 ft | 164 kts | 189° |
| 2026-04-25 03:42 | -18.10355 | 122.18516 | 6539 ft | 163 kts | 188° |
| 2026-04-25 03:42 | -18.11480 | 122.18222 | 6485 ft | 166 kts | 188° |
| 2026-04-25 03:42 | -18.12593 | 122.17919 | 6475 ft | 166 kts | 191° |
| 2026-04-25 03:43 | -18.13718 | 122.17738 | 6475 ft | 160 kts | 177° |
| 2026-04-25 03:43 | -18.14847 | 122.17688 | 6477 ft | 160 kts | 175° |
| 2026-04-25 03:43 | -18.15956 | 122.17693 | 6474 ft | 160 kts | 174° |
| 2026-04-25 03:43 | -18.17076 | 122.17702 | 6470 ft | 159 kts | 174° |
| 2026-04-25 03:44 | -18.18192 | 122.17708 | 6464 ft | 159 kts | 174° |
| 2026-04-25 03:44 | -18.19305 | 122.17712 | 6459 ft | 159 kts | 173° |
| 2026-04-25 03:44 | -18.20415 | 122.17709 | 6458 ft | 159 kts | 174° |
| 2026-04-25 03:44 | -18.21521 | 122.17706 | 6457 ft | 159 kts | 173° |
| 2026-04-25 03:45 | -18.22644 | 122.17701 | 6457 ft | 160 kts | 174° |
| 2026-04-25 03:45 | -18.23765 | 122.17693 | 6451 ft | 160 kts | 173° |
| 2026-04-25 03:45 | -18.24888 | 122.17695 | 6446 ft | 160 kts | 174° |
| 2026-04-25 03:45 | -18.26002 | 122.17703 | 6451 ft | 160 kts | 174° |
| 2026-04-25 03:46 | -18.27135 | 122.17712 | 6450 ft | 161 kts | 174° |
| 2026-04-25 03:46 | -18.28252 | 122.17716 | 6452 ft | 161 kts | 174° |
| 2026-04-25 03:46 | -18.29383 | 122.17726 | 6451 ft | 161 kts | 174° |
| 2026-04-25 03:46 | -18.30503 | 122.17735 | 6446 ft | 161 kts | 174° |
| 2026-04-25 03:47 | -18.31614 | 122.17738 | 6456 ft | 160 kts | 174° |
| 2026-04-25 03:47 | -18.32736 | 122.17746 | 6460 ft | 161 kts | 174° |
| 2026-04-25 03:47 | -18.33867 | 122.17751 | 6462 ft | 161 kts | 174° |
| 2026-04-25 03:47 | -18.34995 | 122.17748 | 6458 ft | 162 kts | 174° |
| 2026-04-25 03:48 | -18.36128 | 122.17740 | 6453 ft | 161 kts | 174° |
| 2026-04-25 03:48 | -18.37245 | 122.17732 | 6455 ft | 161 kts | 174° |
| 2026-04-25 03:48 | -18.38379 | 122.17733 | 6461 ft | 161 kts | 174° |
| 2026-04-25 03:48 | -18.39502 | 122.17731 | 6457 ft | 161 kts | 174° |
| 2026-04-25 03:49 | -18.40624 | 122.17728 | 6459 ft | 161 kts | 174° |
| 2026-04-25 03:49 | -18.41752 | 122.17725 | 6453 ft | 161 kts | 174° |
| 2026-04-25 03:49 | -18.42870 | 122.17730 | 6457 ft | 161 kts | 174° |
| 2026-04-25 03:49 | -18.43992 | 122.17731 | 6459 ft | 161 kts | 174° |
| 2026-04-25 03:50 | -18.45112 | 122.17736 | 6453 ft | 161 kts | 174° |
| 2026-04-25 03:50 | -18.46245 | 122.17741 | 6456 ft | 160 kts | 174° |
| 2026-04-25 03:50 | -18.47364 | 122.17740 | 6464 ft | 161 kts | 174° |
| 2026-04-25 03:50 | -18.48485 | 122.17738 | 6465 ft | 161 kts | 174° |
| 2026-04-25 03:51 | -18.49610 | 122.17734 | 6466 ft | 161 kts | 174° |
| 2026-04-25 03:51 | -18.50736 | 122.17727 | 6470 ft | 161 kts | 174° |
| 2026-04-25 03:51 | -18.51864 | 122.17722 | 6465 ft | 162 kts | 174° |
| 2026-04-25 03:51 | -18.52997 | 122.17723 | 6466 ft | 161 kts | 174° |
| 2026-04-25 03:52 | -18.54129 | 122.17723 | 6464 ft | 161 kts | 173° |
| 2026-04-25 03:52 | -18.55260 | 122.17726 | 6464 ft | 161 kts | 174° |
| 2026-04-25 03:52 | -18.56379 | 122.17730 | 6463 ft | 161 kts | 174° |
| 2026-04-25 03:52 | -18.57512 | 122.17736 | 6464 ft | 161 kts | 174° |
| 2026-04-25 03:53 | -18.58645 | 122.17739 | 6465 ft | 161 kts | 174° |
| 2026-04-25 03:53 | -18.59762 | 122.17745 | 6464 ft | 161 kts | 173° |
| 2026-04-25 03:53 | -18.60897 | 122.17749 | 6465 ft | 161 kts | 173° |
| 2026-04-25 03:53 | -18.62027 | 122.17744 | 6463 ft | 161 kts | 174° |
| 2026-04-25 03:54 | -18.63156 | 122.17741 | 6460 ft | 161 kts | 174° |
| 2026-04-25 03:54 | -18.64270 | 122.17739 | 6463 ft | 161 kts | 174° |
| 2026-04-25 03:54 | -18.65396 | 122.17741 | 6466 ft | 161 kts | 174° |
| 2026-04-25 03:54 | -18.66526 | 122.17741 | 6472 ft | 161 kts | 174° |
| 2026-04-25 03:55 | -18.67650 | 122.17746 | 6469 ft | 161 kts | 174° |
| 2026-04-25 03:55 | -18.68776 | 122.17754 | 6470 ft | 161 kts | 174° |
| 2026-04-25 03:55 | -18.69890 | 122.17602 | 6466 ft | 170 kts | 201° |
| 2026-04-25 03:55 | -18.70760 | 122.16721 | 6482 ft | 178 kts | 234° |
| 2026-04-25 03:56 | -18.71350 | 122.15575 | 6479 ft | 179 kts | 239° |
| 2026-04-25 03:56 | -18.71923 | 122.14393 | 6480 ft | 179 kts | 240° |
| 2026-04-25 03:56 | -18.72484 | 122.13230 | 6483 ft | 179 kts | 240° |
| 2026-04-25 03:56 | -18.73054 | 122.12047 | 6480 ft | 180 kts | 240° |
| 2026-04-25 03:57 | -18.73616 | 122.10876 | 6480 ft | 180 kts | 240° |
| 2026-04-25 03:57 | -18.74188 | 122.09686 | 6482 ft | 180 kts | 240° |
| 2026-04-25 03:57 | -18.74751 | 122.08511 | 6480 ft | 180 kts | 240° |
| 2026-04-25 03:57 | -18.75323 | 122.07322 | 6471 ft | 180 kts | 239° |
| 2026-04-25 03:58 | -18.75887 | 122.06150 | 6470 ft | 180 kts | 239° |
| 2026-04-25 03:58 | -18.76445 | 122.04981 | 6475 ft | 179 kts | 240° |
| 2026-04-25 03:58 | -18.77014 | 122.03791 | 6475 ft | 180 kts | 240° |
| 2026-04-25 03:58 | -18.77574 | 122.02621 | 6471 ft | 179 kts | 239° |
| 2026-04-25 03:59 | -18.78137 | 122.01453 | 6476 ft | 179 kts | 240° |
| 2026-04-25 03:59 | -18.78948 | 122.00514 | 6475 ft | 170 kts | 203° |
| 2026-04-25 03:59 | -18.80026 | 121.99998 | 6474 ft | 168 kts | 195° |
| 2026-04-25 03:59 | -18.81116 | 121.99583 | 6477 ft | 167 kts | 193° |
| 2026-04-25 04:00 | -18.82232 | 121.99210 | 6483 ft | 167 kts | 191° |
| 2026-04-25 04:00 | -18.83315 | 121.98768 | 6469 ft | 173 kts | 212° |
| 2026-04-25 04:00 | -18.84084 | 121.97774 | 6483 ft | 176 kts | 229° |
| 2026-04-25 04:00 | -18.84806 | 121.96718 | 6478 ft | 177 kts | 231° |
| 2026-04-25 04:01 | -18.85520 | 121.95654 | 6482 ft | 178 kts | 231° |
| 2026-04-25 04:01 | -18.86244 | 121.94576 | 6482 ft | 178 kts | 230° |
| 2026-04-25 04:01 | -18.86956 | 121.93507 | 6483 ft | 179 kts | 231° |
| 2026-04-25 04:01 | -18.87671 | 121.92432 | 6476 ft | 179 kts | 231° |
| 2026-04-25 04:02 | -18.88394 | 121.91341 | 6471 ft | 179 kts | 231° |
| 2026-04-25 04:02 | -18.89105 | 121.90268 | 6465 ft | 179 kts | 231° |
| 2026-04-25 04:02 | -18.89814 | 121.89201 | 6475 ft | 178 kts | 231° |
| 2026-04-25 04:02 | -18.90527 | 121.88131 | 6471 ft | 179 kts | 231° |
| 2026-04-25 04:03 | -18.91250 | 121.87049 | 6472 ft | 178 kts | 231° |
| 2026-04-25 04:03 | -18.91960 | 121.85981 | 6470 ft | 178 kts | 231° |
| 2026-04-25 04:03 | -18.92670 | 121.84911 | 6478 ft | 178 kts | 231° |
| 2026-04-25 04:03 | -18.93393 | 121.83823 | 6472 ft | 179 kts | 231° |
| 2026-04-25 04:04 | -18.94105 | 121.82748 | 6468 ft | 179 kts | 231° |
| 2026-04-25 04:04 | -18.94817 | 121.81672 | 6471 ft | 179 kts | 231° |
| 2026-04-25 04:04 | -18.95529 | 121.80601 | 6466 ft | 178 kts | 229° |
| 2026-04-25 04:04 | -18.96398 | 121.79707 | 6471 ft | 174 kts | 219° |
| 2026-04-25 04:05 | -18.97285 | 121.78828 | 6477 ft | 175 kts | 218° |
| 2026-04-25 04:05 | -18.98180 | 121.77948 | 6482 ft | 175 kts | 218° |
| 2026-04-25 04:05 | -18.99077 | 121.77065 | 6479 ft | 176 kts | 218° |
| 2026-04-25 04:05 | -18.99977 | 121.76179 | 6479 ft | 176 kts | 218° |
| 2026-04-25 04:06 | -19.00872 | 121.75292 | 6469 ft | 176 kts | 217° |
| 2026-04-25 04:06 | -19.01772 | 121.74405 | 6469 ft | 176 kts | 218° |
| 2026-04-25 04:06 | -19.02668 | 121.73521 | 6468 ft | 176 kts | 217° |
| 2026-04-25 04:06 | -19.03566 | 121.72633 | 6463 ft | 177 kts | 218° |
| 2026-04-25 04:07 | -19.04463 | 121.71742 | 6456 ft | 176 kts | 218° |
| 2026-04-25 04:07 | -19.05371 | 121.70847 | 6458 ft | 175 kts | 218° |
| 2026-04-25 04:07 | -19.06267 | 121.69969 | 6458 ft | 176 kts | 217° |
| 2026-04-25 04:07 | -19.07161 | 121.69089 | 6458 ft | 176 kts | 218° |
| 2026-04-25 04:08 | -19.08054 | 121.68208 | 6461 ft | 176 kts | 218° |
| 2026-04-25 04:08 | -19.08958 | 121.67316 | 6462 ft | 176 kts | 217° |
| 2026-04-25 04:08 | -19.09845 | 121.66436 | 6460 ft | 176 kts | 218° |
| 2026-04-25 04:08 | -19.10746 | 121.65548 | 6463 ft | 176 kts | 217° |
| 2026-04-25 04:09 | -19.11642 | 121.64661 | 6462 ft | 176 kts | 218° |
| 2026-04-25 04:09 | -19.12544 | 121.63766 | 6465 ft | 176 kts | 218° |
| 2026-04-25 04:09 | -19.13440 | 121.62878 | 6464 ft | 177 kts | 217° |
| 2026-04-25 04:09 | -19.14333 | 121.61985 | 6463 ft | 177 kts | 218° |
| 2026-04-25 04:10 | -19.15227 | 121.61094 | 6462 ft | 176 kts | 218° |
| 2026-04-25 04:10 | -19.16121 | 121.60205 | 6462 ft | 176 kts | 217° |
| 2026-04-25 04:10 | -19.17013 | 121.59310 | 6467 ft | 177 kts | 218° |
| 2026-04-25 04:10 | -19.17907 | 121.58412 | 6465 ft | 177 kts | 218° |
| 2026-04-25 04:11 | -19.19704 | 121.56611 | 6462 ft | 177 kts | 218° |
| 2026-04-25 04:11 | -19.20605 | 121.55712 | 6457 ft | 177 kts | 218° |
| 2026-04-25 04:11 | -19.21501 | 121.54814 | 6460 ft | 177 kts | 218° |
| 2026-04-25 04:12 | -19.22393 | 121.53925 | 6462 ft | 177 kts | 218° |
| 2026-04-25 04:12 | -19.23293 | 121.53026 | 6464 ft | 177 kts | 218° |
| 2026-04-25 04:12 | -19.24188 | 121.52138 | 6462 ft | 177 kts | 218° |
| 2026-04-25 04:12 | -19.25091 | 121.51238 | 6459 ft | 177 kts | 218° |
| 2026-04-25 04:13 | -19.25989 | 121.50342 | 6458 ft | 177 kts | 218° |
| 2026-04-25 04:13 | -19.26887 | 121.49451 | 6453 ft | 176 kts | 218° |
| 2026-04-25 04:13 | -19.27776 | 121.48567 | 6457 ft | 176 kts | 217° |
| 2026-04-25 04:13 | -19.28672 | 121.47672 | 6456 ft | 176 kts | 217° |
| 2026-04-25 04:14 | -19.29572 | 121.46772 | 6458 ft | 177 kts | 218° |
| 2026-04-25 04:14 | -19.30458 | 121.45882 | 6458 ft | 177 kts | 218° |
| 2026-04-25 04:14 | -19.31362 | 121.44974 | 6453 ft | 178 kts | 217° |
| 2026-04-25 04:14 | -19.32265 | 121.44070 | 6451 ft | 178 kts | 218° |
| 2026-04-25 04:15 | -19.33159 | 121.43173 | 6449 ft | 178 kts | 218° |
| 2026-04-25 04:15 | -19.34065 | 121.42264 | 6444 ft | 178 kts | 217° |
| 2026-04-25 04:15 | -19.34960 | 121.41366 | 6448 ft | 177 kts | 217° |
| 2026-04-25 04:15 | -19.35853 | 121.40474 | 6453 ft | 177 kts | 218° |
| 2026-04-25 04:16 | -19.36758 | 121.39571 | 6447 ft | 177 kts | 217° |
| 2026-04-25 04:16 | -19.37651 | 121.38680 | 6449 ft | 177 kts | 218° |
| 2026-04-25 04:16 | -19.38553 | 121.37775 | 6447 ft | 177 kts | 218° |
| 2026-04-25 04:16 | -19.39442 | 121.36883 | 6448 ft | 177 kts | 218° |
| 2026-04-25 04:17 | -19.40344 | 121.35976 | 6448 ft | 177 kts | 218° |
| 2026-04-25 04:17 | -19.41234 | 121.35085 | 6446 ft | 177 kts | 217° |
| 2026-04-25 04:17 | -19.42127 | 121.34193 | 6445 ft | 177 kts | 218° |
| 2026-04-25 04:17 | -19.43030 | 121.33286 | 6447 ft | 177 kts | 218° |
| 2026-04-25 04:18 | -19.43924 | 121.32388 | 6442 ft | 177 kts | 218° |
| 2026-04-25 04:18 | -19.44809 | 121.31503 | 6440 ft | 176 kts | 218° |
| 2026-04-25 04:18 | -19.45712 | 121.30600 | 6443 ft | 176 kts | 218° |
| 2026-04-25 04:18 | -19.46608 | 121.29706 | 6441 ft | 176 kts | 218° |
| 2026-04-25 04:19 | -19.47501 | 121.28816 | 6443 ft | 176 kts | 218° |
| 2026-04-25 04:19 | -19.48387 | 121.27930 | 6443 ft | 176 kts | 218° |
| 2026-04-25 04:19 | -19.49282 | 121.27032 | 6444 ft | 176 kts | 218° |
| 2026-04-25 04:19 | -19.50169 | 121.26141 | 6440 ft | 176 kts | 217° |
| 2026-04-25 04:20 | -19.51064 | 121.25240 | 6441 ft | 176 kts | 218° |
| 2026-04-25 04:20 | -19.51961 | 121.24348 | 6447 ft | 176 kts | 218° |
| 2026-04-25 04:20 | -19.52858 | 121.23454 | 6448 ft | 176 kts | 217° |
| 2026-04-25 04:20 | -19.53753 | 121.22561 | 6447 ft | 177 kts | 218° |
| 2026-04-25 04:21 | -19.54645 | 121.21668 | 6443 ft | 177 kts | 218° |
| 2026-04-25 04:21 | -19.55542 | 121.20766 | 6449 ft | 176 kts | 218° |
| 2026-04-25 04:21 | -19.56429 | 121.19877 | 6452 ft | 177 kts | 218° |
| 2026-04-25 04:21 | -19.57327 | 121.18973 | 6448 ft | 177 kts | 218° |
| 2026-04-25 04:22 | -19.58226 | 121.18072 | 6447 ft | 177 kts | 218° |
| 2026-04-25 04:22 | -19.59123 | 121.17178 | 6448 ft | 176 kts | 218° |
| 2026-04-25 04:22 | -19.60017 | 121.16283 | 6450 ft | 176 kts | 217° |
| 2026-04-25 04:22 | -19.60912 | 121.15391 | 6448 ft | 176 kts | 218° |
| 2026-04-25 04:23 | -19.61808 | 121.14507 | 6450 ft | 176 kts | 218° |
| 2026-04-25 04:23 | -19.62703 | 121.13618 | 6449 ft | 175 kts | 218° |
| 2026-04-25 04:23 | -19.63601 | 121.12736 | 6448 ft | 175 kts | 218° |
| 2026-04-25 04:23 | -19.64492 | 121.11860 | 6453 ft | 175 kts | 218° |
| 2026-04-25 04:24 | -19.65396 | 121.10974 | 6452 ft | 176 kts | 218° |
| 2026-04-25 04:24 | -19.66290 | 121.10091 | 6453 ft | 176 kts | 218° |
| 2026-04-25 04:24 | -19.67194 | 121.09203 | 6446 ft | 176 kts | 218° |
| 2026-04-25 04:24 | -19.68094 | 121.08318 | 6446 ft | 176 kts | 218° |
| 2026-04-25 04:25 | -19.68994 | 121.07431 | 6452 ft | 176 kts | 218° |
| 2026-04-25 04:25 | -19.69897 | 121.06545 | 6454 ft | 176 kts | 217° |
| 2026-04-25 04:25 | -19.70798 | 121.05655 | 6454 ft | 176 kts | 218° |
| 2026-04-25 04:25 | -19.71701 | 121.04767 | 6452 ft | 177 kts | 218° |
| 2026-04-25 04:26 | -19.72592 | 121.03890 | 6450 ft | 176 kts | 218° |
| 2026-04-25 04:26 | -19.73496 | 121.03003 | 6460 ft | 176 kts | 218° |
| 2026-04-25 04:26 | -19.74401 | 121.02119 | 6461 ft | 176 kts | 218° |
| 2026-04-25 04:26 | -19.75301 | 121.01241 | 6471 ft | 175 kts | 218° |
| 2026-04-25 04:27 | -19.76204 | 121.00359 | 6470 ft | 176 kts | 218° |
| 2026-04-25 04:27 | -19.77095 | 120.99481 | 6470 ft | 176 kts | 217° |
| 2026-04-25 04:27 | -19.78002 | 120.98591 | 6466 ft | 176 kts | 218° |
| 2026-04-25 04:27 | -19.78897 | 120.97711 | 6467 ft | 176 kts | 218° |
| 2026-04-25 04:28 | -19.79801 | 120.96821 | 6472 ft | 176 kts | 218° |
| 2026-04-25 04:28 | -19.80709 | 120.95935 | 6470 ft | 176 kts | 218° |
| 2026-04-25 04:28 | -19.81602 | 120.95061 | 6470 ft | 176 kts | 217° |
| 2026-04-25 04:28 | -19.82506 | 120.94171 | 6474 ft | 176 kts | 218° |
| 2026-04-25 04:29 | -19.83406 | 120.93277 | 6470 ft | 177 kts | 221° |
| 2026-04-25 04:29 | -19.84030 | 120.92133 | 6474 ft | 181 kts | 240° |
| 2026-04-25 04:29 | -19.84574 | 120.90925 | 6471 ft | 181 kts | 242° |
| 2026-04-25 04:29 | -19.85100 | 120.89720 | 6474 ft | 181 kts | 242° |
| 2026-04-25 04:30 | -19.85626 | 120.88511 | 6471 ft | 181 kts | 242° |
| 2026-04-25 04:30 | -19.86157 | 120.87294 | 6472 ft | 181 kts | 242° |
| 2026-04-25 04:30 | -19.86693 | 120.86083 | 6476 ft | 180 kts | 242° |
| 2026-04-25 04:30 | -19.87229 | 120.84875 | 6477 ft | 181 kts | 241° |
| 2026-04-25 04:31 | -19.87764 | 120.83670 | 6475 ft | 181 kts | 242° |
| 2026-04-25 04:31 | -19.88304 | 120.82446 | 6474 ft | 181 kts | 244° |
| 2026-04-25 04:31 | -19.88760 | 120.81190 | 6475 ft | 182 kts | 246° |
| 2026-04-25 04:31 | -19.89202 | 120.79945 | 6474 ft | 182 kts | 246° |
| 2026-04-25 04:32 | -19.89650 | 120.78681 | 6474 ft | 182 kts | 247° |
| 2026-04-25 04:32 | -19.90101 | 120.77419 | 6475 ft | 182 kts | 246° |
| 2026-04-25 04:32 | -19.90547 | 120.76175 | 6479 ft | 182 kts | 246° |
| 2026-04-25 04:32 | -19.91000 | 120.74913 | 6480 ft | 182 kts | 246° |
| 2026-04-25 04:33 | -19.91452 | 120.73646 | 6479 ft | 182 kts | 246° |
| 2026-04-25 04:33 | -19.91898 | 120.72396 | 6478 ft | 183 kts | 246° |
| 2026-04-25 04:33 | -19.92349 | 120.71126 | 6473 ft | 183 kts | 246° |
| 2026-04-25 04:33 | -19.92794 | 120.69874 | 6476 ft | 182 kts | 246° |
| 2026-04-25 04:34 | -19.93247 | 120.68602 | 6474 ft | 183 kts | 246° |
| 2026-04-25 04:34 | -19.93695 | 120.67345 | 6475 ft | 183 kts | 247° |
| 2026-04-25 04:34 | -19.94148 | 120.66078 | 6470 ft | 182 kts | 246° |
| 2026-04-25 04:34 | -19.94597 | 120.64829 | 6473 ft | 182 kts | 246° |
| 2026-04-25 04:35 | -19.95051 | 120.63561 | 6476 ft | 182 kts | 246° |
| 2026-04-25 04:35 | -19.95498 | 120.62309 | 6475 ft | 182 kts | 246° |
| 2026-04-25 04:35 | -19.95948 | 120.61060 | 6475 ft | 182 kts | 246° |
| 2026-04-25 04:35 | -19.96399 | 120.59802 | 6475 ft | 182 kts | 246° |
| 2026-04-25 04:36 | -19.96851 | 120.58542 | 6474 ft | 183 kts | 246° |
| 2026-04-25 04:36 | -19.97307 | 120.57263 | 6472 ft | 183 kts | 246° |
| 2026-04-25 04:36 | -19.97760 | 120.56001 | 6467 ft | 182 kts | 247° |
| 2026-04-25 04:36 | -19.98205 | 120.54760 | 6466 ft | 182 kts | 246° |
| 2026-04-25 04:37 | -19.98657 | 120.53487 | 6472 ft | 182 kts | 246° |
| 2026-04-25 04:37 | -19.99101 | 120.52232 | 6471 ft | 182 kts | 246° |
| 2026-04-25 04:37 | -19.99554 | 120.50973 | 6474 ft | 182 kts | 246° |
| 2026-04-25 04:37 | -20.00006 | 120.49716 | 6470 ft | 182 kts | 246° |
| 2026-04-25 04:38 | -20.00459 | 120.48454 | 6471 ft | 182 kts | 246° |
| 2026-04-25 04:38 | -20.00911 | 120.47194 | 6470 ft | 183 kts | 246° |
| 2026-04-25 04:38 | -20.01365 | 120.45931 | 6467 ft | 183 kts | 246° |
| 2026-04-25 04:38 | -20.01820 | 120.44669 | 6469 ft | 183 kts | 246° |
| 2026-04-25 04:39 | -20.02178 | 120.43376 | 6465 ft | 184 kts | 261° |
| 2026-04-25 04:39 | -20.02353 | 120.42039 | 6466 ft | 183 kts | 262° |
| 2026-04-25 04:39 | -20.02514 | 120.40680 | 6472 ft | 183 kts | 262° |
| 2026-04-25 04:39 | -20.02667 | 120.39342 | 6474 ft | 183 kts | 262° |
| 2026-04-25 04:40 | -20.02824 | 120.37987 | 6473 ft | 184 kts | 262° |
| 2026-04-25 04:40 | -20.02977 | 120.36650 | 6468 ft | 184 kts | 262° |
| 2026-04-25 04:40 | -20.03134 | 120.35292 | 6474 ft | 184 kts | 261° |
| 2026-04-25 04:40 | -20.03288 | 120.33942 | 6468 ft | 184 kts | 262° |
| 2026-04-25 04:41 | -20.03444 | 120.32592 | 6471 ft | 183 kts | 262° |
| 2026-04-25 04:41 | -20.03600 | 120.31246 | 6471 ft | 183 kts | 262° |
| 2026-04-25 04:41 | -20.03752 | 120.29916 | 6476 ft | 183 kts | 262° |
| 2026-04-25 04:41 | -20.03907 | 120.28566 | 6478 ft | 184 kts | 262° |
| 2026-04-25 04:42 | -20.04064 | 120.27213 | 6477 ft | 184 kts | 262° |
| 2026-04-25 04:42 | -20.04218 | 120.25860 | 6474 ft | 184 kts | 263° |
| 2026-04-25 04:42 | -20.04373 | 120.24507 | 6474 ft | 183 kts | 262° |
| 2026-04-25 04:42 | -20.04525 | 120.23174 | 6475 ft | 183 kts | 262° |
| 2026-04-25 04:43 | -20.04678 | 120.21823 | 6479 ft | 183 kts | 262° |
| 2026-04-25 04:43 | -20.04833 | 120.20473 | 6477 ft | 183 kts | 262° |
| 2026-04-25 04:43 | -20.04985 | 120.19138 | 6481 ft | 184 kts | 262° |
| 2026-04-25 04:43 | -20.05139 | 120.17781 | 6479 ft | 184 kts | 262° |
| 2026-04-25 04:44 | -20.05294 | 120.16428 | 6476 ft | 183 kts | 262° |
| 2026-04-25 04:44 | -20.05448 | 120.15079 | 6479 ft | 183 kts | 262° |
| 2026-04-25 04:44 | -20.05600 | 120.13745 | 6482 ft | 184 kts | 262° |
| 2026-04-25 04:44 | -20.05754 | 120.12394 | 6481 ft | 183 kts | 262° |
| 2026-04-25 04:45 | -20.05908 | 120.11044 | 6477 ft | 183 kts | 262° |
| 2026-04-25 04:45 | -20.06061 | 120.09698 | 6481 ft | 183 kts | 262° |
| 2026-04-25 04:45 | -20.06213 | 120.08349 | 6475 ft | 183 kts | 262° |
| 2026-04-25 04:45 | -20.06365 | 120.07008 | 6475 ft | 183 kts | 262° |
| 2026-04-25 04:46 | -20.06517 | 120.05667 | 6483 ft | 183 kts | 262° |
| 2026-04-25 04:46 | -20.06669 | 120.04329 | 6481 ft | 183 kts | 262° |
| 2026-04-25 04:46 | -20.06820 | 120.02988 | 6478 ft | 184 kts | 262° |
| 2026-04-25 04:46 | -20.06975 | 120.01624 | 6476 ft | 184 kts | 262° |
| 2026-04-25 04:47 | -20.07127 | 120.00281 | 6473 ft | 184 kts | 262° |
| 2026-04-25 04:47 | -20.07279 | 119.98938 | 6474 ft | 183 kts | 262° |
| 2026-04-25 04:47 | -20.07431 | 119.97578 | 6471 ft | 184 kts | 262° |
| 2026-04-25 04:47 | -20.07582 | 119.96245 | 6461 ft | 183 kts | 262° |
| 2026-04-25 04:48 | -20.07735 | 119.94886 | 6463 ft | 184 kts | 262° |
| 2026-04-25 04:48 | -20.07887 | 119.93547 | 6464 ft | 183 kts | 262° |
| 2026-04-25 04:48 | -20.08040 | 119.92191 | 6463 ft | 183 kts | 262° |
| 2026-04-25 04:48 | -20.08192 | 119.90855 | 6455 ft | 183 kts | 262° |
| 2026-04-25 04:49 | -20.08343 | 119.89507 | 6460 ft | 183 kts | 263° |
| 2026-04-25 04:49 | -20.08493 | 119.88162 | 6462 ft | 183 kts | 263° |
| 2026-04-25 04:49 | -20.08645 | 119.86818 | 6457 ft | 183 kts | 263° |
| 2026-04-25 04:49 | -20.08796 | 119.85472 | 6456 ft | 183 kts | 263° |
| 2026-04-25 04:50 | -20.08945 | 119.84128 | 6462 ft | 183 kts | 262° |
| 2026-04-25 04:50 | -20.09096 | 119.82785 | 6463 ft | 183 kts | 262° |
| 2026-04-25 04:50 | -20.09246 | 119.81442 | 6459 ft | 183 kts | 262° |
| 2026-04-25 04:50 | -20.09396 | 119.80099 | 6454 ft | 182 kts | 262° |
| 2026-04-25 04:51 | -20.09547 | 119.78755 | 6452 ft | 182 kts | 262° |
| 2026-04-25 04:51 | -20.09696 | 119.77418 | 6461 ft | 182 kts | 262° |
| 2026-04-25 04:51 | -20.09844 | 119.76095 | 6460 ft | 182 kts | 262° |
| 2026-04-25 04:51 | -20.09994 | 119.74755 | 6460 ft | 183 kts | 262° |
| 2026-04-25 04:52 | -20.10144 | 119.73406 | 6467 ft | 183 kts | 262° |
| 2026-04-25 04:52 | -20.10296 | 119.72053 | 6450 ft | 183 kts | 262° |
| 2026-04-25 04:52 | -20.10445 | 119.70710 | 6457 ft | 183 kts | 262° |
| 2026-04-25 04:52 | -20.10593 | 119.69377 | 6452 ft | 183 kts | 262° |
| 2026-04-25 04:53 | -20.10745 | 119.68021 | 6464 ft | 183 kts | 262° |
| 2026-04-25 04:53 | -20.10892 | 119.66683 | 6459 ft | 183 kts | 262° |
| 2026-04-25 04:53 | -20.11041 | 119.65342 | 6462 ft | 183 kts | 262° |
| 2026-04-25 04:53 | -20.11190 | 119.63998 | 6453 ft | 183 kts | 262° |
| 2026-04-25 04:54 | -20.11339 | 119.62653 | 6455 ft | 183 kts | 262° |
| 2026-04-25 04:54 | -20.11488 | 119.61310 | 6455 ft | 182 kts | 262° |
| 2026-04-25 04:54 | -20.11636 | 119.59971 | 6452 ft | 182 kts | 262° |
| 2026-04-25 04:54 | -20.11840 | 119.58643 | 6450 ft | 181 kts | 253° |
| 2026-04-25 04:55 | -20.12184 | 119.57355 | 6453 ft | 180 kts | 251° |
| 2026-04-25 04:55 | -20.12536 | 119.56080 | 6458 ft | 181 kts | 252° |
| 2026-04-25 04:55 | -20.12889 | 119.54805 | 6453 ft | 181 kts | 252° |
| 2026-04-25 04:55 | -20.13243 | 119.53514 | 6454 ft | 181 kts | 252° |
| 2026-04-25 04:56 | -20.13597 | 119.52220 | 6454 ft | 181 kts | 252° |
| 2026-04-25 04:56 | -20.13947 | 119.50938 | 6458 ft | 182 kts | 252° |
| 2026-04-25 04:56 | -20.14299 | 119.49647 | 6463 ft | 182 kts | 252° |
| 2026-04-25 04:56 | -20.14653 | 119.48347 | 6460 ft | 183 kts | 252° |
| 2026-04-25 04:57 | -20.15004 | 119.47060 | 6456 ft | 182 kts | 252° |
| 2026-04-25 04:57 | -20.15358 | 119.45759 | 6454 ft | 182 kts | 252° |
| 2026-04-25 04:57 | -20.15711 | 119.44463 | 6441 ft | 181 kts | 252° |
| 2026-04-25 04:57 | -20.16059 | 119.43192 | 6453 ft | 180 kts | 252° |
| 2026-04-25 04:58 | -20.16406 | 119.41920 | 6450 ft | 179 kts | 252° |
| 2026-04-25 04:58 | -20.16755 | 119.40633 | 6456 ft | 180 kts | 252° |
| 2026-04-25 04:58 | -20.17102 | 119.39355 | 6451 ft | 180 kts | 252° |
| 2026-04-25 04:58 | -20.17451 | 119.38077 | 6458 ft | 180 kts | 252° |
| 2026-04-25 04:59 | -20.17799 | 119.36792 | 6471 ft | 181 kts | 252° |
| 2026-04-25 04:59 | -20.18151 | 119.35497 | 6460 ft | 182 kts | 252° |
| 2026-04-25 04:59 | -20.18504 | 119.34199 | 6454 ft | 182 kts | 252° |
| 2026-04-25 04:59 | -20.18856 | 119.32907 | 6460 ft | 181 kts | 252° |
| 2026-04-25 05:00 | -20.19204 | 119.31623 | 6446 ft | 181 kts | 252° |
| 2026-04-25 05:00 | -20.19554 | 119.30331 | 6448 ft | 180 kts | 252° |
| 2026-04-25 05:00 | -20.19898 | 119.29066 | 6447 ft | 180 kts | 252° |
| 2026-04-25 05:00 | -20.20244 | 119.27788 | 6451 ft | 179 kts | 252° |
| 2026-04-25 05:01 | -20.20591 | 119.26508 | 6449 ft | 179 kts | 252° |
| 2026-04-25 05:01 | -20.20939 | 119.25224 | 6456 ft | 180 kts | 252° |
| 2026-04-25 05:01 | -20.21286 | 119.23941 | 6445 ft | 180 kts | 252° |
| 2026-04-25 05:01 | -20.21633 | 119.22667 | 6447 ft | 179 kts | 252° |
| 2026-04-25 05:02 | -20.21980 | 119.21386 | 6456 ft | 180 kts | 252° |
| 2026-04-25 05:02 | -20.22322 | 119.20117 | 6451 ft | 180 kts | 252° |
| 2026-04-25 05:02 | -20.22674 | 119.18820 | 6449 ft | 180 kts | 252° |
| 2026-04-25 05:02 | -20.23018 | 119.17552 | 6453 ft | 180 kts | 252° |
| 2026-04-25 05:03 | -20.23366 | 119.16262 | 6448 ft | 180 kts | 252° |
| 2026-04-25 05:03 | -20.23710 | 119.14991 | 6449 ft | 180 kts | 252° |
| 2026-04-25 05:03 | -20.24058 | 119.13704 | 6457 ft | 180 kts | 252° |
| 2026-04-25 05:03 | -20.24403 | 119.12429 | 6453 ft | 180 kts | 252° |
| 2026-04-25 05:04 | -20.24751 | 119.11143 | 6449 ft | 179 kts | 252° |
| 2026-04-25 05:04 | -20.25095 | 119.09866 | 6450 ft | 179 kts | 252° |
| 2026-04-25 05:04 | -20.25440 | 119.08592 | 6440 ft | 179 kts | 252° |
| 2026-04-25 05:04 | -20.25784 | 119.07320 | 6445 ft | 178 kts | 252° |
| 2026-04-25 05:05 | -20.26127 | 119.06046 | 6452 ft | 178 kts | 252° |
| 2026-04-25 05:05 | -20.26468 | 119.04783 | 6450 ft | 179 kts | 252° |
| 2026-04-25 05:05 | -20.26815 | 119.03500 | 6447 ft | 179 kts | 252° |
| 2026-04-25 05:05 | -20.27158 | 119.02226 | 6443 ft | 180 kts | 252° |
| 2026-04-25 05:06 | -20.27504 | 119.00944 | 6450 ft | 179 kts | 253° |
| 2026-04-25 05:06 | -20.27849 | 118.99663 | 6452 ft | 179 kts | 253° |
| 2026-04-25 05:06 | -20.28193 | 118.98380 | 6446 ft | 179 kts | 252° |
| 2026-04-25 05:06 | -20.28537 | 118.97107 | 6444 ft | 179 kts | 252° |
| 2026-04-25 05:07 | -20.28878 | 118.95837 | 6443 ft | 178 kts | 253° |
| 2026-04-25 05:07 | -20.29219 | 118.94553 | 6324 ft | 184 kts | 253° |
| 2026-04-25 05:07 | -20.29541 | 118.93243 | 6170 ft | 181 kts | 254° |
| 2026-04-25 05:07 | -20.29842 | 118.91984 | 5967 ft | 173 kts | 256° |
| 2026-04-25 05:08 | -20.30103 | 118.90740 | 5715 ft | 173 kts | 256° |
| 2026-04-25 05:08 | -20.30395 | 118.89477 | 5450 ft | 178 kts | 255° |
| 2026-04-25 05:08 | -20.30737 | 118.88210 | 5225 ft | 179 kts | 251° |
| 2026-04-25 05:08 | -20.31137 | 118.86943 | 5013 ft | 180 kts | 249° |
| 2026-04-25 05:09 | -20.31550 | 118.85680 | 4806 ft | 179 kts | 250° |
| 2026-04-25 05:09 | -20.31942 | 118.84414 | 4582 ft | 180 kts | 252° |
| 2026-04-25 05:09 | -20.32344 | 118.83161 | 4396 ft | 177 kts | 247° |
| 2026-04-25 05:09 | -20.32926 | 118.82007 | 4181 ft | 177 kts | 239° |
| 2026-04-25 05:10 | -20.33345 | 118.80791 | 3980 ft | 178 kts | 260° |
| 2026-04-25 05:10 | -20.33445 | 118.79474 | 3751 ft | 178 kts | 270° |
| 2026-04-25 05:10 | -20.33535 | 118.78178 | 3588 ft | 175 kts | 259° |
| 2026-04-25 05:10 | -20.33844 | 118.76938 | 3430 ft | 173 kts | 252° |
| 2026-04-25 05:11 | -20.34240 | 118.75719 | 3237 ft | 174 kts | 250° |
| 2026-04-25 05:11 | -20.34610 | 118.74494 | 3038 ft | 175 kts | 252° |
| 2026-04-25 05:11 | -20.34965 | 118.73246 | 2859 ft | 174 kts | 253° |
| 2026-04-25 05:12 | -20.35694 | 118.70797 | 2504 ft | 173 kts | 249° |
| 2026-04-25 05:12 | -20.36077 | 118.69582 | 2306 ft | 174 kts | 253° |
| 2026-04-25 05:12 | -20.36401 | 118.68342 | 2127 ft | 173 kts | 256° |
| 2026-04-25 05:12 | -20.36670 | 118.67094 | 1944 ft | 174 kts | 259° |
| 2026-04-25 05:13 | -20.36922 | 118.65840 | 1752 ft | 174 kts | 257° |
| 2026-04-25 05:13 | -20.37256 | 118.64600 | 1572 ft | 168 kts | 252° |
| 2026-04-25 05:13 | -20.37679 | 118.63523 | 1381 ft | 151 kts | 241° |
| 2026-04-25 05:13 | -20.38326 | 118.62658 | 1142 ft | 147 kts | 221° |
| 2026-04-25 05:14 | -20.39089 | 118.62009 | 1063 ft | 134 kts | 218° |
| 2026-04-25 05:14 | -20.39767 | 118.61342 | 980 ft | 130 kts | 226° |
| 2026-04-25 05:14 | -20.40431 | 118.60732 | 993 ft | 118 kts | 194° |
| 2026-04-25 05:15 | -20.41649 | 118.61545 | 941 ft | 100 kts | 117° |
| 2026-04-25 05:15 | -20.41988 | 118.62185 | 976 ft | 99 kts | 114° |
| 2026-04-25 05:15 | -20.42373 | 118.62817 | 1013 ft | 103 kts | 121° |
| 2026-04-25 05:15 | -20.42488 | 118.63484 | 1032 ft | 87 kts | 61° |
| 2026-04-25 05:16 | -20.42057 | 118.63914 | 934 ft | 82 kts | 44° |
| 2026-04-25 05:16 | -20.41653 | 118.64342 | 827 ft | 81 kts | 45° |
| 2026-04-25 05:16 | -20.41241 | 118.64748 | 726 ft | 82 kts | 41° |
| 2026-04-25 05:16 | -20.40781 | 118.65093 | 636 ft | 83 kts | 16° |
| 2026-04-25 05:17 | -20.40238 | 118.64884 | 487 ft | 85 kts | 330° |
| 2026-04-25 05:17 | -20.39808 | 118.64491 | 342 ft | 80 kts | 324° |
| 2026-04-25 05:17 | -20.39398 | 118.64090 | 218 ft | 79 kts | 324° |
| 2026-04-25 05:17 | -20.38994 | 118.63705 | 114 ft | 76 kts | 323° |
| 2026-04-25 05:18 | -20.38606 | 118.63329 | 37 ft | 69 kts | 322° |
| 2026-04-25 05:18 | -20.38337 | 118.63067 | 31 ft | 37 kts | 315° |
| 2026-04-25 05:18 | -20.38207 | 118.62989 | 31 ft | 15 kts | 25° |
| 2026-04-25 05:18 | -20.38142 | 118.63060 | 31 ft | 12 kts | 49° |
| 2026-04-25 05:19 | -20.38091 | 118.63115 | 31 ft | 8 kts | 52° |
| 2026-04-25 05:19 | -20.38055 | 118.63162 | 30 ft | 7 kts | 46° |
| 2026-04-25 05:19 | -20.38010 | 118.63174 | 30 ft | 6 kts | 336° |
| 2026-04-25 05:19 | -20.37960 | 118.63127 | 30 ft | 12 kts | 316° |
| 2026-04-25 05:20 | -20.37896 | 118.63064 | 30 ft | 12 kts | 317° |
| 2026-04-25 05:20 | -20.37830 | 118.63011 | 30 ft | 11 kts | 330° |
| 2026-04-25 05:20 | -20.37758 | 118.62999 | 30 ft | 9 kts | 1° |
| 2026-04-25 05:20 | -20.37745 | 118.63006 | 30 ft | 0 kts | 88° |